Terminal Aerodrome Forecast
Issued by NWS

Home | Current Version | Previous Version | Text Only | Print | Product List | Glossary On
Versions: 1 2 3 4 5 6 7 8 9 10 11 12 13 14 15 16 17 18 19 20 21 22 23 24 25 26 27 28 29 30 31 32 33 34 35
000
FTUS41 KRNK 020537
TAFBCB
TAF
KBCB 020537Z 0206/0306 27003KT P6SM SCT004 OVC022
      TEMPO 0208/0210 4SM BR OVC004
     FM021300 29010G20KT P6SM BKN025
     FM021800 30008G16KT P6SM SCT030
     FM022100 32006KT P6SM SCT250
     FM030200 36004KT P6SM BKN250=

USA.gov is the U.S. government's official web portal to all federal, state and local government web resources and services.